メインページ
METAR-TAF:

METAR-TAF

空港 :

カルガリー, アルバータ州, カナダ

カルガリー国際空港

緯度: 51-07N, 経度: 114-01W, 海抜: 1077m

現時点の気象観測

当レポートは22分前の13:00(UTC)に作成
無風
気温 7°C
湿度 70%
気圧 1015 hPa
視程: 48.3km
高度8400ftの雲は散在している
高度11000ftの千切れ雲あり

METAR: CYYC 251300Z 00000KT 30SM SCT084 BKN110 07/02 A2997 RMK AC3AC4 SLP169

時間: 07:22 (13:22 UTC)

予報

当レポートは1時間44分前の11:38(UTC)に作成
予報は25日の 12時(UTC)から 26日の 12時(UTC)まで有効
変向風 3kt
視程: 10km
高度12000ftの雲はほとんどない
高度18000ftの雲は散在している
25日の 2100時(UTC)から
の風 10kt
視程: 10km
高度7000ftの雲は散在している
高度16000ftの千切れ雲あり
26日の 05時(UTC)から 26日の 07時(UTC)まで徐々に
西の風 6kt

TAF: CYYC 251138Z 2512/2612 VRB03KT P6SM FEW120 SCT180 FM252100 17010KT P6SM SCT070 BKN160 BECMG 2605/2607 26006KT RMK NXT FCST BY 251500Z

4,000以上の空港の気象観測と天気予報(METAR報とTAF報)

利用可能な観測所は地図上に黄色い丸と赤い丸で示す。

丸の上にカーソルを重ねると観測所名を参照できる。

次にクリックすると気象観測と天気予報を参照できる。

マップの切り替え:黒色「×」印の緑ボタンをクリックして拡大、「-」印の緑ボタンをクリックして縮小、緑色の三角印をクリックして隣りの地図に切り替え


METAR-TAF: